• Join FlightAware (Why Join?)
  • Login
  • US Flag 
11:48AM EDT


 

Airport Tracker/Info


-or-


 

Live Flight TrackerFlight Track Log ✈ SSX930 ✈ 19-Mar-2011 ✈ KASE - KDEN

Flight Track Log - Related Links

Times and Time Zones

All times are in EDT time to prevent confusion due to time zone crossing. See the SSX930 flight status page for this flight to view local times or setup timezone preferences in your user account.

Time Position Orientation Groundspeed Altitude Reporting Facility
EDT Latitude Longitude Course Direction KTS MPH feet Rate Location/Type
06:23PM 39.2603 -106.9355 340° North  Level FlightAware Approximate
06:25PM 39.3047 -106.9561 293° West 224 258 10,800  Level Denver Center
06:25PM 39.3214 -107.0072 310° West 239 275 12,700 2,460 Climbing Denver Center
06:26PM 39.3442 -107.0425 32° Northeast 252 290 13,300 1,920 Climbing Denver Center
06:27PM 39.4089 -106.9892 98° East 310 357 15,500 2,340 Climbing Denver Center
06:28PM 39.3969 -106.8844 99° East 291 335 18,000 1,740 Climbing Denver Center
06:29PM 39.3867 -106.8008 95° East 274 315 19,000 480 Climbing Denver Center
06:30PM 39.3786 -106.6908 100° East 292 336 19,000 60 Level Denver Center
06:31PM 39.3622 -106.5672 106° East 322 371 19,200 960 Climbing Denver Center
06:32PM 39.3372 -106.4517 104° East 316 364 21,000 900 Climbing Denver Center
06:33PM 39.3164 -106.3469 105° East 306 352 21,000  Level Denver Center
06:34PM 39.2953 -106.2450 102° East 311 358 21,000  Level Denver Center
06:35PM 39.2761 -106.1272 107° East 332 382 21,000  Level Denver Center
06:36PM 39.2486 -106.0094 106° East 339 390 21,000  Level Denver Center
06:37PM 39.2231 -105.8917 107° East 339 390 21,000  Level Denver Center
06:38PM 39.1953 -105.7714 105° East 339 390 21,000 -540 Level Denver Center
06:39PM 39.1717 -105.6564 79° East 339 390 20,000 -1,320 Descending Denver Center
06:40PM 39.1894 -105.5356 70° East 333 383 18,400 -1,740 Descending Denver Center
06:41PM 39.2219 -105.4225 69° East 334 384 16,600 -1,740 Descending Denver Center
06:42PM 39.2564 -105.3067 52° Northeast 345 397 15,000 -1,020 Descending Denver Center
06:43PM 39.3197 -105.2036 40° Northeast 327 376 14,600 -720 Descending Denver Center
06:44PM 39.3897 -105.1272 38° Northeast 327 376 13,600 -840 Descending Denver Center
06:45PM 39.4578 -105.0586 42° Northeast 321 369 13,000 -300 Descending Denver Center
06:46PM 39.5236 -104.9819 40° Northeast 316 364 13,000  Level Denver Center
06:47PM 39.5894 -104.9106 31° Northeast 316 364 13,000  Level Denver Center
06:48PM 39.6667 -104.8500 North 290 334 13,000 -300 Level Denver TRACON
06:49PM 39.7667 -104.8333 360° North 300 345 12,400 -780 Descending Denver TRACON
06:50PM 39.8500 -104.8333 11° North 280 322 11,300 -780 Descending Denver TRACON
06:51PM 39.9167 -104.8167 27° Northeast 260 299 10,800 -1,140 Descending Denver TRACON
06:52PM 39.9667 -104.7833 90° East 256 295 9,200 -1,800 Descending Denver TRACON
06:53PM 39.9667 -104.7000 180° South 224 258 7,300 -1,500 Descending Denver TRACON
06:54PM 39.9333 -104.7000 166° South 140 161 6,100 -1,200 Descending Denver TRACON
06:58PM 39.8502 -104.6723 166° South  Level FlightAware Approximate